createdAt,value
2018-04-18T00:01:53.738Z,18.50
2018-04-18T00:05:56.617Z,16.40
2018-04-18T00:09:59.389Z,17.77
2018-04-18T00:14:02.116Z,17.87
2018-04-18T00:18:04.861Z,19.03
2018-04-18T00:22:07.648Z,17.20
2018-04-18T00:26:10.555Z,16.40
2018-04-18T00:30:14.049Z,17.77
2018-04-18T00:34:17.921Z,14.60
2018-04-18T00:38:20.641Z,16.77
2018-04-18T00:42:23.456Z,18.10
2018-04-18T00:46:26.201Z,20.13
2018-04-18T00:50:29.011Z,20.07
2018-04-18T00:54:31.755Z,20.07
2018-04-18T00:58:34.701Z,17.80
2018-04-18T01:02:37.449Z,19.80
2018-04-18T01:06:40.322Z,18.47
2018-04-18T01:10:43.069Z,19.03
2018-04-18T01:14:45.857Z,21.47
2018-04-18T01:18:48.612Z,19.30
2018-04-18T01:22:51.467Z,20.97
2018-04-18T01:26:54.990Z,17.90
2018-04-18T01:30:58.557Z,18.30
2018-04-18T01:35:01.386Z,21.20
2018-04-18T01:39:04.361Z,20.30
2018-04-18T01:43:07.090Z,23.97
2018-04-18T01:47:10.653Z,22.33
2018-04-18T01:51:13.412Z,22.43
2018-04-18T01:55:16.977Z,19.00
2018-04-18T01:59:19.773Z,24.70
2018-04-18T02:03:22.518Z,17.00
2018-04-18T02:07:26.029Z,23.87
2018-04-18T02:11:29.713Z,27.00
2018-04-18T02:15:32.573Z,19.70
2018-04-18T02:19:35.410Z,18.60
2018-04-18T02:23:38.146Z,20.87
2018-04-18T02:27:41.737Z,20.77
2018-04-18T02:31:44.545Z,21.80
2018-04-18T02:35:47.375Z,23.67
2018-04-18T02:39:50.140Z,27.37
2018-04-18T02:43:52.878Z,22.40
2018-04-18T02:47:55.633Z,22.10
2018-04-18T02:51:58.423Z,23.07
2018-04-18T02:56:01.146Z,25.70
2018-04-18T03:00:04.873Z,23.80
2018-04-18T03:04:08.452Z,25.33
2018-04-18T03:08:11.398Z,20.00
2018-04-18T03:12:14.141Z,21.63
2018-04-18T03:16:17.095Z,25.27
2018-04-18T03:20:20.088Z,19.60
2018-04-18T03:24:22.848Z,22.93
2018-04-18T03:28:25.777Z,17.57
2018-04-18T03:32:29.273Z,21.13
2018-04-18T03:36:32.193Z,24.30
2018-04-18T03:40:35.695Z,22.67
2018-04-18T03:44:39.562Z,25.67
2018-04-18T03:48:42.344Z,26.50
2018-04-18T03:52:45.211Z,24.97
2018-04-18T03:56:48.156Z,24.33
2018-04-18T04:00:51.282Z,24.93
2018-04-18T04:04:54.008Z,27.43
2018-04-18T04:08:56.823Z,24.23
2018-04-18T04:12:59.956Z,26.10
2018-04-18T04:17:14.734Z,28.27
2018-04-18T04:21:30.099Z,28.80
2018-04-18T04:25:32.949Z,29.57
2018-04-18T04:29:35.740Z,29.20
2018-04-18T04:33:38.571Z,25.57
2018-04-18T04:37:42.145Z,30.83
2018-04-18T04:41:44.937Z,22.90
2018-04-18T04:45:47.703Z,24.37
2018-04-18T04:49:50.473Z,26.53
2018-04-18T04:53:54.018Z,27.87
2018-04-18T04:57:56.766Z,29.40
2018-04-18T05:01:59.613Z,30.40
2018-04-18T05:06:02.399Z,28.87
2018-04-18T05:10:05.190Z,28.90
2018-04-18T05:14:08.066Z,30.47
2018-04-18T05:18:10.851Z,28.57
2018-04-18T05:22:13.615Z,24.80
2018-04-18T05:26:16.437Z,29.50
2018-04-18T05:30:19.293Z,27.10
2018-04-18T05:34:22.051Z,28.00
2018-04-18T05:38:24.906Z,27.03
2018-04-18T05:42:28.254Z,28.40
2018-04-18T05:46:31.076Z,31.10
2018-04-18T05:50:34.991Z,30.70
2018-04-18T05:54:37.985Z,28.80
2018-04-18T05:58:40.948Z,25.80
2018-04-18T06:02:44.751Z,29.50
2018-04-18T06:06:47.474Z,28.60
2018-04-18T06:10:50.220Z,27.60
2018-04-18T06:14:53.755Z,24.07
2018-04-18T06:18:56.500Z,23.80
2018-04-18T06:22:59.303Z,25.57
2018-04-18T06:27:02.197Z,21.60
2018-04-18T06:31:04.948Z,16.67
2018-04-18T06:35:07.781Z,18.73
2018-04-18T06:39:10.646Z,14.73
2018-04-18T06:43:13.433Z,14.57
2018-04-18T06:47:17.097Z,13.57
2018-04-18T06:51:19.881Z,13.77
2018-04-18T06:55:25.113Z,12.97
2018-04-18T06:59:27.960Z,12.43
2018-04-18T07:03:34.295Z,12.27
2018-04-18T07:07:37.478Z,10.87
2018-04-18T07:11:41.005Z,13.50
2018-04-18T07:15:43.937Z,12.07
2018-04-18T07:19:48.591Z,11.07
2018-04-18T07:23:53.881Z,12.90
2018-04-18T07:27:57.083Z,11.83
2018-04-18T07:31:59.815Z,11.77
2018-04-18T07:36:02.626Z,12.93
2018-04-18T07:40:07.967Z,11.93
2018-04-18T07:44:10.805Z,14.63
2018-04-18T07:48:13.605Z,12.60
2018-04-18T07:52:16.424Z,13.40
2018-04-18T07:56:19.265Z,12.93
2018-04-18T08:00:22.159Z,14.73
2018-04-18T08:04:25.008Z,14.40
2018-04-18T08:08:27.863Z,13.17
2018-04-18T08:12:30.673Z,15.17
2018-04-18T08:16:33.573Z,13.93
2018-04-18T08:20:36.399Z,14.37
2018-04-18T08:24:39.186Z,15.30
2018-04-18T08:28:42.179Z,14.33
2018-04-18T08:32:44.923Z,13.97
2018-04-18T08:36:48.438Z,14.10
2018-04-18T08:40:52.227Z,14.20
2018-04-18T08:44:54.979Z,14.90
2018-04-18T08:48:57.925Z,14.80
2018-04-18T08:53:00.726Z,11.80
2018-04-18T08:57:03.562Z,11.83
2018-04-18T09:01:07.161Z,13.10
2018-04-18T09:05:10.009Z,11.80
2018-04-18T09:09:12.880Z,10.23
2018-04-18T09:13:16.379Z,11.63
2018-04-18T09:17:19.948Z,10.90
2018-04-18T09:21:22.739Z,10.07
2018-04-18T09:25:25.473Z,9.87
2018-04-18T09:29:28.318Z,11.30
2018-04-18T09:33:31.055Z,10.10
2018-04-18T09:37:33.846Z,10.20
2018-04-18T09:41:37.420Z,9.70
2018-04-18T09:45:40.157Z,9.90
2018-04-18T09:49:42.977Z,8.87
2018-04-18T09:53:45.720Z,9.90
2018-04-18T09:57:48.472Z,10.17
2018-04-18T10:01:51.492Z,7.77
2018-04-18T10:05:55.217Z,8.17
2018-04-18T10:10:00.274Z,8.03
2018-04-18T10:14:03.231Z,7.93
2018-04-18T10:18:06.306Z,6.80
2018-04-18T10:22:09.170Z,6.87
2018-04-18T10:26:12.865Z,7.80
2018-04-18T10:30:16.989Z,8.40
2018-04-18T10:34:19.973Z,6.40
2018-04-18T10:38:22.835Z,7.13
2018-04-18T10:42:25.704Z,7.03
2018-04-18T10:46:28.437Z,6.13
2018-04-18T10:50:31.575Z,6.80
2018-04-18T10:54:34.599Z,6.80
2018-04-18T10:58:37.573Z,6.23
2018-04-18T11:02:40.722Z,6.47
2018-04-18T11:06:43.677Z,6.07
2018-04-18T11:10:46.661Z,6.70
2018-04-18T11:14:49.483Z,7.23
2018-04-18T11:18:52.274Z,7.17
2018-04-18T11:22:54.988Z,6.43
2018-04-18T11:26:57.744Z,7.07
2018-04-18T11:31:02.642Z,5.93
2018-04-18T11:35:05.530Z,5.80
2018-04-18T11:39:08.296Z,6.13
2018-04-18T11:43:11.120Z,5.70
2018-04-18T11:47:13.914Z,6.37
2018-04-18T11:51:16.683Z,6.10
2018-04-18T11:55:23.290Z,8.07
2018-04-18T11:59:26.441Z,5.90
2018-04-18T12:03:29.192Z,6.10
2018-04-18T12:07:32.009Z,5.80
2018-04-18T12:11:34.997Z,6.53
2018-04-18T12:15:38.005Z,6.93
2018-04-18T12:19:40.818Z,6.73
2018-04-18T12:23:43.675Z,5.83
2018-04-18T12:27:46.449Z,6.13
2018-04-18T12:31:50.362Z,5.77
2018-04-18T12:35:53.389Z,6.03
2018-04-18T12:39:56.864Z,7.33
2018-04-18T12:43:59.731Z,7.90
2018-04-18T12:48:02.458Z,7.70
2018-04-18T12:52:06.570Z,8.17
2018-04-18T12:56:09.337Z,7.43
2018-04-18T13:00:29.194Z,8.07
2018-04-18T13:04:32.813Z,8.30
2018-04-18T13:08:36.356Z,7.37
2018-04-18T13:12:40.252Z,7.30
2018-04-18T13:16:43.100Z,6.80
2018-04-18T13:20:45.905Z,7.20
2018-04-18T13:24:48.916Z,6.33
2018-04-18T13:28:51.811Z,7.17
2018-04-18T13:32:55.622Z,6.20
2018-04-18T13:36:58.419Z,6.33
2018-04-18T13:41:01.280Z,6.77
2018-04-18T13:45:04.322Z,7.20
2018-04-18T13:49:08.026Z,7.57
2018-04-18T13:53:11.037Z,6.87
2018-04-18T13:57:13.946Z,5.07
2018-04-18T14:01:17.072Z,4.43
2018-04-18T14:05:20.343Z,5.37
2018-04-18T14:09:24.800Z,5.30
2018-04-18T14:13:28.047Z,6.23
2018-04-18T14:17:31.874Z,4.37
2018-04-18T14:21:35.454Z,4.53
2018-04-18T14:25:38.453Z,4.13
2018-04-18T14:29:42.106Z,4.97
2018-04-18T14:33:45.890Z,4.83
2018-04-18T14:37:49.035Z,4.50
2018-04-18T14:41:52.810Z,4.20
2018-04-18T14:45:55.906Z,7.17
2018-04-18T14:49:58.821Z,8.03
2018-04-18T14:54:02.715Z,7.50
2018-04-18T14:58:05.916Z,7.80
2018-04-18T15:02:08.869Z,6.40
2018-04-18T15:06:13.582Z,5.70
2018-04-18T15:10:17.487Z,6.17
2018-04-18T15:14:20.369Z,6.10
2018-04-18T15:18:30.419Z,5.93
2018-04-18T15:22:34.076Z,6.07
2018-04-18T15:26:39.653Z,6.70
2018-04-18T15:30:42.792Z,5.90
2018-04-18T15:34:46.473Z,6.40
2018-04-18T15:38:49.387Z,5.20
2018-04-18T15:42:52.381Z,3.93
2018-04-18T15:46:55.361Z,4.30
2018-04-18T15:50:58.095Z,5.17
2018-04-18T15:55:01.124Z,4.90
2018-04-18T15:59:04.691Z,5.63
2018-04-18T16:03:07.694Z,4.70
2018-04-18T16:07:10.505Z,4.37
2018-04-18T16:11:13.345Z,7.87
2018-04-18T16:15:16.912Z,4.37
2018-04-18T16:19:22.135Z,4.93
2018-04-18T16:23:24.913Z,4.00
2018-04-18T16:27:28.529Z,3.90
2018-04-18T16:31:32.052Z,4.23
2018-04-18T16:35:35.543Z,4.50
2018-04-18T16:39:38.342Z,4.43
2018-04-18T16:43:41.230Z,4.03
2018-04-18T16:47:45.002Z,4.00
2018-04-18T16:51:47.841Z,3.63
2018-04-18T16:55:50.593Z,3.83
2018-04-18T16:59:53.418Z,4.53
2018-04-18T17:03:56.176Z,4.07
2018-04-18T17:08:03.189Z,3.47
2018-04-18T17:12:05.967Z,4.70
2018-04-18T17:16:09.701Z,4.30
2018-04-18T17:20:12.451Z,5.27
2018-04-18T17:24:21.882Z,4.43
2018-04-18T17:28:24.727Z,4.27
2018-04-18T17:32:27.581Z,4.70
2018-04-18T17:36:30.414Z,4.70
2018-04-18T17:40:34.032Z,4.70
2018-04-18T17:44:37.929Z,4.83
2018-04-18T17:48:41.022Z,4.30
2018-04-18T17:52:44.007Z,5.60
2018-04-18T17:56:47.613Z,4.53
2018-04-18T18:00:51.549Z,4.50
2018-04-18T18:04:54.379Z,4.40
2018-04-18T18:08:58.351Z,5.60
2018-04-18T18:13:01.467Z,4.97
2018-04-18T18:17:04.227Z,4.50
2018-04-18T18:21:08.087Z,5.80
2018-04-18T18:25:11.564Z,4.90
2018-04-18T18:29:14.682Z,4.87
2018-04-18T18:33:18.028Z,5.50
2018-04-18T18:37:20.890Z,7.27
2018-04-18T18:41:23.955Z,5.20
2018-04-18T18:45:27.315Z,5.10
2018-04-18T18:49:30.544Z,5.43
2018-04-18T18:53:34.674Z,6.50
2018-04-18T18:57:37.454Z,6.57
2018-04-18T19:01:40.877Z,7.43
2018-04-18T19:05:44.085Z,7.70
2018-04-18T19:09:47.188Z,7.50
2018-04-18T19:13:50.175Z,9.10
2018-04-18T19:17:53.459Z,10.90
2018-04-18T19:22:00.105Z,11.00
2018-04-18T19:26:03.278Z,14.07
2018-04-18T19:30:06.113Z,14.13
2018-04-18T19:34:08.967Z,15.87
2018-04-18T19:38:12.508Z,13.53
2018-04-18T19:42:18.577Z,11.77
2018-04-18T19:46:24.068Z,9.77
2018-04-18T19:50:26.829Z,9.43
2018-04-18T19:54:29.590Z,9.60
2018-04-18T19:58:32.338Z,8.80
2018-04-18T20:02:35.356Z,8.83
2018-04-18T20:06:38.966Z,9.50
2018-04-18T20:10:41.740Z,8.57
2018-04-18T20:14:44.785Z,9.03
2018-04-18T20:18:47.508Z,9.10
2018-04-18T20:22:51.264Z,8.73
2018-04-18T20:26:54.035Z,9.10
2018-04-18T20:30:57.038Z,7.97
2018-04-18T20:35:01.082Z,9.70
2018-04-18T20:39:04.037Z,9.23
2018-04-18T20:43:06.806Z,9.30
2018-04-18T20:47:09.553Z,9.13
2018-04-18T20:51:13.074Z,9.90
2018-04-18T20:55:16.660Z,9.00
2018-04-18T20:59:19.418Z,9.63
2018-04-18T21:03:22.246Z,9.33
2018-04-18T21:07:25.065Z,8.20
2018-04-18T21:11:27.909Z,9.17
2018-04-18T21:15:30.718Z,10.17
2018-04-18T21:19:34.262Z,9.00
2018-04-18T21:23:39.077Z,8.10
2018-04-18T21:27:41.872Z,8.07
2018-04-18T21:31:44.608Z,7.70
2018-04-18T21:35:47.414Z,8.97
2018-04-18T21:39:50.184Z,8.67
2018-04-18T21:43:52.977Z,10.20
2018-04-18T21:47:55.721Z,9.70
2018-04-18T21:51:58.526Z,8.40
2018-04-18T21:56:02.094Z,9.40
2018-04-18T22:00:04.965Z,10.10
2018-04-18T22:04:07.878Z,10.60
2018-04-18T22:08:10.617Z,9.03
2018-04-18T22:12:13.367Z,10.20
2018-04-18T22:16:16.171Z,10.70
2018-04-18T22:20:18.946Z,9.57
2018-04-18T22:24:21.843Z,9.10
2018-04-18T22:28:25.513Z,9.20
2018-04-18T22:32:28.246Z,9.53
2018-04-18T22:36:31.973Z,10.00
2018-04-18T22:40:34.761Z,7.83
2018-04-18T22:44:38.265Z,9.90
2018-04-18T22:48:42.036Z,10.10
2018-04-18T22:52:44.807Z,10.10
2018-04-18T22:56:48.956Z,9.80
2018-04-18T23:00:51.808Z,9.13
2018-04-18T23:04:54.638Z,10.13
2018-04-18T23:08:57.392Z,9.90
2018-04-18T23:13:00.141Z,10.43
2018-04-18T23:17:04.079Z,10.50
2018-04-18T23:21:06.826Z,8.87
2018-04-18T23:25:10.364Z,10.30
2018-04-18T23:29:13.117Z,10.30
2018-04-18T23:33:15.832Z,11.20
2018-04-18T23:37:19.406Z,11.77
2018-04-18T23:41:22.204Z,9.50
2018-04-18T23:45:25.001Z,9.47
2018-04-18T23:49:27.782Z,11.40
2018-04-18T23:53:30.585Z,11.17
2018-04-18T23:57:33.349Z,11.27
